createdAt,value
2019-02-16T00:00:46.414Z,989.02
2019-02-16T00:01:46.413Z,988.99
2019-02-16T00:02:46.450Z,988.90
2019-02-16T00:03:46.420Z,989.00
2019-02-16T00:04:46.377Z,988.97
2019-02-16T00:05:46.362Z,988.95
2019-02-16T00:06:46.350Z,988.92
2019-02-16T00:07:46.373Z,988.93
2019-02-16T00:08:46.333Z,988.89
2019-02-16T00:09:46.330Z,988.92
2019-02-16T00:10:46.304Z,988.90
2019-02-16T00:11:46.313Z,988.91
2019-02-16T00:12:46.290Z,988.86
2019-02-16T00:13:46.276Z,988.86
2019-02-16T00:14:46.269Z,988.85
2019-02-16T00:15:46.252Z,988.81
2019-02-16T00:16:46.340Z,988.81
2019-02-16T00:17:46.243Z,988.84
2019-02-16T00:18:46.220Z,988.73
2019-02-16T00:19:46.240Z,988.78
2019-02-16T00:20:46.201Z,988.76
2019-02-16T00:21:46.258Z,988.75
2019-02-16T00:22:46.180Z,988.76
2019-02-16T00:23:46.200Z,988.75
2019-02-16T00:24:46.195Z,988.74
2019-02-16T00:25:46.150Z,988.74
2019-02-16T00:26:46.137Z,988.76
2019-02-16T00:27:46.126Z,988.70
2019-02-16T00:28:46.127Z,988.71
2019-02-16T00:29:46.100Z,988.76
2019-02-16T00:30:46.102Z,988.75
2019-02-16T00:31:46.113Z,988.73
2019-02-16T00:32:46.088Z,988.71
2019-02-16T00:33:46.056Z,988.65
2019-02-16T00:34:46.051Z,988.73
2019-02-16T00:35:46.038Z,988.72
2019-02-16T00:36:46.024Z,988.67
2019-02-16T00:37:46.025Z,988.69
2019-02-16T00:38:46.014Z,988.63
2019-02-16T00:39:45.998Z,988.70
2019-02-16T00:40:45.985Z,988.64
2019-02-16T00:41:45.983Z,988.68
2019-02-16T00:42:45.962Z,988.66
2019-02-16T00:43:45.959Z,988.63
2019-02-16T00:44:45.942Z,988.60
2019-02-16T00:45:45.929Z,988.67
2019-02-16T00:46:45.921Z,988.62
2019-02-16T00:47:45.916Z,988.64
2019-02-16T00:48:45.904Z,988.61
2019-02-16T00:49:45.889Z,988.66
2019-02-16T00:50:45.871Z,988.63
2019-02-16T00:51:45.862Z,988.66
2019-02-16T00:52:45.880Z,988.66
2019-02-16T00:53:45.840Z,988.65
2019-02-16T00:54:45.832Z,988.63
2019-02-16T00:55:45.827Z,988.63
2019-02-16T00:56:45.806Z,988.64
2019-02-16T00:57:45.810Z,988.59
2019-02-16T00:58:45.805Z,988.66
2019-02-16T00:59:45.789Z,988.61
2019-02-16T01:00:45.767Z,988.63
2019-02-16T01:01:45.807Z,988.64
2019-02-16T01:02:45.784Z,988.53
2019-02-16T01:03:45.741Z,988.66
2019-02-16T01:04:45.722Z,988.59
2019-02-16T01:05:45.725Z,988.66
2019-02-16T01:06:45.748Z,988.52
2019-02-16T01:07:45.693Z,988.61
2019-02-16T01:08:45.693Z,988.61
2019-02-16T01:09:45.665Z,988.57
2019-02-16T01:10:45.657Z,988.56
2019-02-16T01:11:45.657Z,988.54
2019-02-16T01:12:45.637Z,988.56
2019-02-16T01:13:45.667Z,988.55
2019-02-16T01:14:45.614Z,988.52
2019-02-16T01:15:45.601Z,988.48
2019-02-16T01:16:45.596Z,988.49
2019-02-16T01:17:45.581Z,988.47
2019-02-16T01:18:45.581Z,988.46
2019-02-16T01:19:45.566Z,988.45
2019-02-16T01:20:45.640Z,988.43
2019-02-16T01:21:45.552Z,988.43
2019-02-16T01:22:45.542Z,988.40
2019-02-16T01:23:45.531Z,988.45
2019-02-16T01:24:46.478Z,988.43
2019-02-16T01:25:45.504Z,988.41
2019-02-16T01:26:45.482Z,988.39
2019-02-16T01:27:45.480Z,988.39
2019-02-16T01:28:45.472Z,988.43
2019-02-16T01:29:45.468Z,988.39
2019-02-16T01:30:45.438Z,988.34
2019-02-16T01:31:45.427Z,988.37
2019-02-16T01:32:45.417Z,988.39
2019-02-16T01:33:45.640Z,988.38
2019-02-16T01:34:45.402Z,988.35
2019-02-16T01:35:45.386Z,988.36
2019-02-16T01:36:45.373Z,988.28
2019-02-16T01:37:45.372Z,988.38
2019-02-16T01:38:45.364Z,988.36
2019-02-16T01:39:45.356Z,988.36
2019-02-16T01:40:45.334Z,988.29
2019-02-16T01:41:47.448Z,988.33
2019-02-16T01:42:45.310Z,988.27
2019-02-16T01:43:45.313Z,988.30
2019-02-16T01:44:45.289Z,988.34
2019-02-16T01:45:45.277Z,988.32
2019-02-16T01:46:45.306Z,988.29
2019-02-16T01:47:45.279Z,988.26
2019-02-16T01:48:45.260Z,988.26
2019-02-16T01:49:45.293Z,988.24
2019-02-16T01:50:45.222Z,988.25
2019-02-16T01:51:45.212Z,988.27
2019-02-16T01:52:45.203Z,988.20
2019-02-16T01:53:45.229Z,988.20
2019-02-16T01:54:45.184Z,988.13
2019-02-16T01:55:45.171Z,988.22
2019-02-16T01:56:45.160Z,988.13
2019-02-16T01:57:45.145Z,988.13
2019-02-16T01:58:45.172Z,988.16
2019-02-16T01:59:45.125Z,988.14
2019-02-16T02:00:45.136Z,988.09
2019-02-16T02:01:45.103Z,988.08
2019-02-16T02:02:45.093Z,988.04
2019-02-16T02:03:45.140Z,988.01
2019-02-16T02:04:45.077Z,988.11
2019-02-16T02:05:45.060Z,988.02
2019-02-16T02:06:45.049Z,987.98
2019-02-16T02:07:45.047Z,988.02
2019-02-16T02:08:45.032Z,988.02
2019-02-16T02:09:45.019Z,987.96
2019-02-16T02:10:45.074Z,987.94
2019-02-16T02:11:44.999Z,987.89
2019-02-16T02:12:44.992Z,987.90
2019-02-16T02:13:44.981Z,987.90
2019-02-16T02:14:44.984Z,987.94
2019-02-16T02:15:44.982Z,987.90
2019-02-16T02:16:44.944Z,987.88
2019-02-16T02:17:45.004Z,987.85
2019-02-16T02:18:44.923Z,987.84
2019-02-16T02:19:44.920Z,987.82
2019-02-16T02:20:44.940Z,987.84
2019-02-16T02:21:44.903Z,987.85
2019-02-16T02:22:44.879Z,987.85
2019-02-16T02:23:44.871Z,987.81
2019-02-16T02:24:44.876Z,987.80
2019-02-16T02:25:44.860Z,987.84
2019-02-16T02:26:44.880Z,987.81
2019-02-16T02:27:44.831Z,987.83
2019-02-16T02:28:44.818Z,987.80
2019-02-16T02:29:44.815Z,987.84
2019-02-16T02:30:44.827Z,987.82
2019-02-16T02:31:44.800Z,987.78
2019-02-16T02:32:44.776Z,987.75
2019-02-16T02:33:44.762Z,987.80
2019-02-16T02:34:44.775Z,987.86
2019-02-16T02:35:44.737Z,987.73
2019-02-16T02:36:44.729Z,987.84
2019-02-16T02:37:44.717Z,987.76
2019-02-16T02:38:44.713Z,987.80
2019-02-16T02:39:44.748Z,987.77
2019-02-16T02:40:44.684Z,987.79
2019-02-16T02:41:44.678Z,987.82
2019-02-16T02:42:44.669Z,987.70
2019-02-16T02:43:44.655Z,987.78
2019-02-16T02:44:44.641Z,987.79
2019-02-16T02:45:44.683Z,987.80
2019-02-16T02:46:44.619Z,987.84
2019-02-16T02:47:44.630Z,987.79
2019-02-16T02:48:44.610Z,987.76
2019-02-16T02:49:44.599Z,987.80
2019-02-16T02:50:44.577Z,987.78
2019-02-16T02:51:51.693Z,987.77
2019-02-16T02:52:45.580Z,987.75
2019-02-16T02:53:44.548Z,987.75
2019-02-16T02:54:44.547Z,987.75
2019-02-16T02:55:44.531Z,987.74
2019-02-16T02:56:44.513Z,987.72
2019-02-16T02:57:44.517Z,987.69
2019-02-16T02:58:44.512Z,987.70
2019-02-16T02:59:44.489Z,987.72
2019-02-16T03:00:44.469Z,987.73
2019-02-16T03:01:44.458Z,987.73
2019-02-16T03:02:44.479Z,987.72
2019-02-16T03:03:44.439Z,987.67
2019-02-16T03:04:44.436Z,987.68
2019-02-16T03:05:44.443Z,987.63
2019-02-16T03:06:44.413Z,987.64
2019-02-16T03:07:44.393Z,987.62
2019-02-16T03:08:44.389Z,987.60
2019-02-16T03:09:44.372Z,987.59
2019-02-16T03:10:44.395Z,987.66
2019-02-16T03:11:44.363Z,987.67
2019-02-16T03:12:44.384Z,987.69
2019-02-16T03:13:44.347Z,987.64
2019-02-16T03:14:44.337Z,987.66
2019-02-16T03:15:44.309Z,987.67
2019-02-16T03:16:44.303Z,987.61
2019-02-16T03:17:44.302Z,987.69
2019-02-16T03:18:44.280Z,987.67
2019-02-16T03:19:44.265Z,987.70
2019-02-16T03:20:44.255Z,987.68
2019-02-16T03:21:44.257Z,987.68
2019-02-16T03:22:44.238Z,987.65
2019-02-16T03:23:44.233Z,987.62
2019-02-16T03:24:44.245Z,987.68
2019-02-16T03:25:44.210Z,987.73
2019-02-16T03:26:44.217Z,987.69
2019-02-16T03:27:44.181Z,987.74
2019-02-16T03:28:44.182Z,987.75
2019-02-16T03:29:44.168Z,987.73
2019-02-16T03:30:44.155Z,987.75
2019-02-16T03:31:44.144Z,987.72
2019-02-16T03:32:44.132Z,987.78
2019-02-16T03:33:44.118Z,987.76
2019-02-16T03:34:44.110Z,987.71
2019-02-16T03:35:44.116Z,987.74
2019-02-16T03:36:44.109Z,987.70
2019-02-16T03:37:44.089Z,987.81
2019-02-16T03:38:44.069Z,987.75
2019-02-16T03:39:44.055Z,987.73
2019-02-16T03:40:44.056Z,987.71
2019-02-16T03:41:44.039Z,987.69
2019-02-16T03:42:44.044Z,987.65
2019-02-16T03:43:44.013Z,987.71
2019-02-16T03:44:44.006Z,987.69
2019-02-16T03:45:43.993Z,987.74
2019-02-16T03:46:44.011Z,987.72
2019-02-16T03:47:43.970Z,987.68
2019-02-16T03:48:43.955Z,987.75
2019-02-16T03:49:43.944Z,987.72
2019-02-16T03:50:43.934Z,987.75
2019-02-16T03:51:43.947Z,987.78
2019-02-16T03:52:43.942Z,987.75
2019-02-16T03:53:43.906Z,987.78
2019-02-16T03:54:43.899Z,987.77
2019-02-16T03:55:43.888Z,987.79
2019-02-16T03:56:43.883Z,987.77
2019-02-16T03:57:43.870Z,987.79
2019-02-16T03:58:43.853Z,987.76
2019-02-16T03:59:43.844Z,987.73
2019-02-16T04:00:43.828Z,987.83
2019-02-16T04:01:43.837Z,987.76
2019-02-16T04:02:43.852Z,987.81
2019-02-16T04:03:43.801Z,987.81
2019-02-16T04:04:43.790Z,987.88
2019-02-16T04:05:43.781Z,987.85
2019-02-16T04:06:43.958Z,987.84
2019-02-16T04:07:43.755Z,987.86
2019-02-16T04:08:43.759Z,987.85
2019-02-16T04:09:43.744Z,987.87
2019-02-16T04:10:43.726Z,987.89
2019-02-16T04:11:43.713Z,987.86
2019-02-16T04:12:43.705Z,987.84
2019-02-16T04:13:43.695Z,987.88
2019-02-16T04:14:43.683Z,987.91
2019-02-16T04:15:43.682Z,987.94
2019-02-16T04:16:43.667Z,987.95
2019-02-16T04:17:43.652Z,987.95
2019-02-16T04:18:43.640Z,987.90
2019-02-16T04:19:43.626Z,987.97
2019-02-16T04:20:43.616Z,987.92
2019-02-16T04:21:43.607Z,987.93
2019-02-16T04:22:43.603Z,987.96
2019-02-16T04:23:43.591Z,987.94
2019-02-16T04:24:43.581Z,987.93
2019-02-16T04:25:43.599Z,987.94
2019-02-16T04:26:43.559Z,987.88
2019-02-16T04:27:43.564Z,987.94
2019-02-16T04:28:43.531Z,987.98
2019-02-16T04:29:43.518Z,987.95
2019-02-16T04:30:43.564Z,987.91
2019-02-16T04:31:43.504Z,987.89
2019-02-16T04:32:43.496Z,987.92
2019-02-16T04:33:43.497Z,987.91
2019-02-16T04:34:43.466Z,987.93
2019-02-16T04:35:43.462Z,987.89
2019-02-16T04:36:43.447Z,987.80
2019-02-16T04:37:43.448Z,987.84
2019-02-16T04:38:43.429Z,987.84
2019-02-16T04:39:43.411Z,987.86
2019-02-16T04:40:43.399Z,987.82
2019-02-16T04:41:43.425Z,987.86
2019-02-16T04:42:43.421Z,987.81
2019-02-16T04:43:43.381Z,987.91
2019-02-16T04:44:43.379Z,987.89
2019-02-16T04:45:43.348Z,987.88
2019-02-16T04:46:43.343Z,987.93
2019-02-16T04:47:43.344Z,987.88
2019-02-16T04:48:43.322Z,987.92
2019-02-16T04:49:43.316Z,987.89
2019-02-16T04:50:43.311Z,987.86
2019-02-16T04:51:43.298Z,987.88
2019-02-16T04:52:43.293Z,987.87
2019-02-16T04:53:43.284Z,987.83
2019-02-16T04:54:43.250Z,987.89
2019-02-16T04:55:43.244Z,987.83
2019-02-16T04:56:43.238Z,987.90
2019-02-16T04:57:43.235Z,987.90
2019-02-16T04:58:43.216Z,987.88
2019-02-16T04:59:43.215Z,987.87
2019-02-16T05:00:43.193Z,987.93
2019-02-16T05:01:43.175Z,987.89
2019-02-16T05:02:43.184Z,987.83
2019-02-16T05:03:43.167Z,987.84
2019-02-16T05:04:43.148Z,987.90
2019-02-16T05:05:43.138Z,987.81
2019-02-16T05:06:43.138Z,987.90
2019-02-16T05:07:43.124Z,987.90
2019-02-16T05:08:43.103Z,987.91
2019-02-16T05:09:43.088Z,987.88
2019-02-16T05:10:43.093Z,987.85
2019-02-16T05:11:43.069Z,987.82
2019-02-16T05:12:43.089Z,987.87
2019-02-16T05:13:43.051Z,987.85
2019-02-16T05:14:43.041Z,987.82
2019-02-16T05:15:43.036Z,987.81
2019-02-16T05:16:43.017Z,987.82
2019-02-16T05:17:43.045Z,987.83
2019-02-16T05:18:43.001Z,987.83
2019-02-16T05:19:43.003Z,987.82
2019-02-16T05:20:42.976Z,987.90
2019-02-16T05:21:42.963Z,987.89
2019-02-16T05:22:44.888Z,987.89
2019-02-16T05:23:42.951Z,987.89
2019-02-16T05:24:42.930Z,987.86
2019-02-16T05:25:42.929Z,987.86
2019-02-16T05:26:42.970Z,987.90
2019-02-16T05:27:42.915Z,987.84
2019-02-16T05:28:42.904Z,987.90
2019-02-16T05:29:42.879Z,987.87
2019-02-16T05:30:42.866Z,987.88
2019-02-16T05:31:42.858Z,987.90
2019-02-16T05:32:42.849Z,987.88
2019-02-16T05:33:42.848Z,987.88
2019-02-16T05:34:42.835Z,987.92
2019-02-16T05:35:42.814Z,987.88
2019-02-16T05:36:42.814Z,987.87
2019-02-16T05:37:42.792Z,987.90
2019-02-16T05:38:42.800Z,987.91
2019-02-16T05:39:42.770Z,987.92
2019-02-16T05:40:42.759Z,987.92
2019-02-16T05:41:42.749Z,987.98
2019-02-16T05:42:42.737Z,987.96
2019-02-16T05:43:42.742Z,987.99
2019-02-16T05:44:42.736Z,987.96
2019-02-16T05:45:42.710Z,987.93
2019-02-16T05:46:42.693Z,987.96
2019-02-16T05:47:42.691Z,987.95
2019-02-16T05:48:42.684Z,987.91
2019-02-16T05:49:42.662Z,987.96
2019-02-16T05:50:42.659Z,987.90
2019-02-16T05:51:42.641Z,987.92
2019-02-16T05:52:42.633Z,987.96
2019-02-16T05:53:42.650Z,987.92
2019-02-16T05:54:42.621Z,987.94
2019-02-16T05:55:42.608Z,987.92
2019-02-16T05:56:42.588Z,987.93
2019-02-16T05:57:42.596Z,987.98
2019-02-16T05:58:42.603Z,987.93
2019-02-16T05:59:42.554Z,987.99
2019-02-16T06:00:42.579Z,987.96
2019-02-16T06:01:42.539Z,987.98
2019-02-16T06:02:42.538Z,987.97
2019-02-16T06:03:42.512Z,988.01
2019-02-16T06:04:42.538Z,987.99
2019-02-16T06:05:42.505Z,988.05
2019-02-16T06:06:42.481Z,988.03
2019-02-16T06:07:42.487Z,987.98
2019-02-16T06:08:42.466Z,988.07
2019-02-16T06:09:42.457Z,988.09
2019-02-16T06:10:42.437Z,987.97
2019-02-16T06:11:42.446Z,988.11
2019-02-16T06:12:42.419Z,988.15
2019-02-16T06:13:42.408Z,988.13
2019-02-16T06:14:42.438Z,988.12
2019-02-16T06:15:42.382Z,988.16
2019-02-16T06:16:42.374Z,988.20
2019-02-16T06:17:42.362Z,988.18
2019-02-16T06:18:42.378Z,988.12
2019-02-16T06:19:42.361Z,988.11
2019-02-16T06:20:42.329Z,988.17
2019-02-16T06:21:42.423Z,988.23
2019-02-16T06:22:42.314Z,988.13
2019-02-16T06:23:42.301Z,988.16
2019-02-16T06:24:42.295Z,988.20
2019-02-16T06:25:42.282Z,988.22
2019-02-16T06:26:42.276Z,988.24
2019-02-16T06:27:42.256Z,988.23
2019-02-16T06:28:42.244Z,988.22
2019-02-16T06:29:42.243Z,988.21
2019-02-16T06:30:42.227Z,988.21
2019-02-16T06:31:42.218Z,988.18
2019-02-16T06:32:42.204Z,988.24
2019-02-16T06:33:42.201Z,988.20
2019-02-16T06:34:42.189Z,988.19
2019-02-16T06:35:42.189Z,988.22
2019-02-16T06:36:42.169Z,988.21
2019-02-16T06:37:42.163Z,988.22
2019-02-16T06:38:42.136Z,988.29
2019-02-16T06:39:42.185Z,988.29
2019-02-16T06:40:42.124Z,988.35
2019-02-16T06:41:42.110Z,988.39
2019-02-16T06:42:42.099Z,988.36
2019-02-16T06:43:42.105Z,988.48
2019-02-16T06:44:42.093Z,988.38
2019-02-16T06:45:42.106Z,988.41
2019-02-16T06:46:42.076Z,988.43
2019-02-16T06:47:42.059Z,988.49
2019-02-16T06:48:42.033Z,988.47
2019-02-16T06:49:42.035Z,988.49
2019-02-16T06:50:42.020Z,988.49
2019-02-16T06:51:42.008Z,988.52
2019-02-16T06:52:41.992Z,988.49
2019-02-16T06:53:41.983Z,988.54
2019-02-16T06:54:41.975Z,988.54
2019-02-16T06:55:41.991Z,988.49
2019-02-16T06:56:42.044Z,988.52
2019-02-16T06:57:41.936Z,988.50
2019-02-16T06:58:41.925Z,988.50
2019-02-16T06:59:41.914Z,988.52
2019-02-16T07:00:41.918Z,988.54
2019-02-16T07:01:41.905Z,988.46
2019-02-16T07:02:41.919Z,988.53
2019-02-16T07:03:41.902Z,988.50
2019-02-16T07:04:41.863Z,988.59
2019-02-16T07:05:41.880Z,988.60
2019-02-16T07:06:41.905Z,988.65
2019-02-16T07:07:41.835Z,988.55
2019-02-16T07:08:41.834Z,988.56
2019-02-16T07:09:41.814Z,988.68
2019-02-16T07:10:41.908Z,988.62
2019-02-16T07:11:41.785Z,988.58
2019-02-16T07:12:41.773Z,988.57
2019-02-16T07:13:41.763Z,988.63
2019-02-16T07:14:41.755Z,988.66
2019-02-16T07:15:41.751Z,988.59
2019-02-16T07:16:41.729Z,988.65
2019-02-16T07:17:41.722Z,988.64
2019-02-16T07:18:41.708Z,988.64
2019-02-16T07:19:41.704Z,988.64
2019-02-16T07:20:41.707Z,988.68
2019-02-16T07:21:41.678Z,988.72
2019-02-16T07:22:41.676Z,988.68
2019-02-16T07:23:41.661Z,988.74
2019-02-16T07:24:41.690Z,988.72
2019-02-16T07:25:41.643Z,988.76
2019-02-16T07:26:41.628Z,988.74
2019-02-16T07:27:41.616Z,988.69
2019-02-16T07:28:41.600Z,988.69
2019-02-16T07:29:41.591Z,988.66
2019-02-16T07:30:41.596Z,988.65
2019-02-16T07:31:41.678Z,988.73
2019-02-16T07:32:41.592Z,988.72
2019-02-16T07:33:41.550Z,988.68
2019-02-16T07:34:41.546Z,988.68
2019-02-16T07:35:41.535Z,988.63
2019-02-16T07:36:41.642Z,988.64
2019-02-16T07:37:41.507Z,988.68
2019-02-16T07:38:41.555Z,988.66
2019-02-16T07:39:41.483Z,988.66
2019-02-16T07:40:41.487Z,988.72
2019-02-16T07:41:41.459Z,988.74
2019-02-16T07:42:41.460Z,988.71
2019-02-16T07:43:41.448Z,988.69
2019-02-16T07:44:41.430Z,988.73
2019-02-16T07:45:41.957Z,988.73
2019-02-16T07:46:41.421Z,988.71
2019-02-16T07:47:41.451Z,988.69
2019-02-16T07:48:41.384Z,988.79
2019-02-16T07:49:41.417Z,988.71
2019-02-16T07:50:41.361Z,988.74
2019-02-16T07:51:41.363Z,988.68
2019-02-16T07:52:41.353Z,988.62
2019-02-16T07:53:41.330Z,988.70
2019-02-16T07:54:41.322Z,988.71
2019-02-16T07:55:41.308Z,988.75
2019-02-16T07:56:41.304Z,988.70
2019-02-16T07:57:41.284Z,988.75
2019-02-16T07:58:41.279Z,988.74
2019-02-16T07:59:41.332Z,988.74
2019-02-16T08:00:41.258Z,988.71
2019-02-16T08:01:41.251Z,988.77
2019-02-16T08:02:41.229Z,988.79
2019-02-16T08:03:41.220Z,988.77
2019-02-16T08:04:41.214Z,988.74
2019-02-16T08:05:41.198Z,988.78
2019-02-16T08:06:41.281Z,988.72
2019-02-16T08:07:42.779Z,988.74
2019-02-16T08:08:41.170Z,988.78
2019-02-16T08:09:41.153Z,988.72
2019-02-16T08:10:41.187Z,988.65
2019-02-16T08:11:41.168Z,988.67
2019-02-16T08:12:41.130Z,988.71
2019-02-16T08:13:41.116Z,988.60
2019-02-16T08:14:41.127Z,988.68
2019-02-16T08:15:41.092Z,988.63
2019-02-16T08:16:41.090Z,988.63
2019-02-16T08:17:41.101Z,988.65
2019-02-16T08:18:41.068Z,988.59
2019-02-16T08:19:41.085Z,988.61
2019-02-16T08:20:41.192Z,988.59
2019-02-16T08:21:41.390Z,988.58
2019-02-16T08:22:41.189Z,988.61
2019-02-16T08:23:41.070Z,988.50
2019-02-16T08:24:41.060Z,988.47
2019-02-16T08:25:41.002Z,988.49
2019-02-16T08:26:40.985Z,988.45
2019-02-16T08:27:40.967Z,988.41
2019-02-16T08:28:40.948Z,988.47
2019-02-16T08:29:40.939Z,988.45
2019-02-16T08:30:40.929Z,988.48
2019-02-16T08:31:40.922Z,988.47
2019-02-16T08:32:40.907Z,988.49
2019-02-16T08:33:40.902Z,988.53
2019-02-16T08:34:40.885Z,988.50
2019-02-16T08:35:40.899Z,988.48
2019-02-16T08:36:40.884Z,988.52
2019-02-16T08:37:40.852Z,988.51
2019-02-16T08:38:40.838Z,988.49
2019-02-16T08:39:40.893Z,988.51
2019-02-16T08:40:43.518Z,988.48
2019-02-16T08:41:41.621Z,988.41
2019-02-16T08:42:41.007Z,988.39
2019-02-16T08:43:40.907Z,988.40
2019-02-16T08:44:40.772Z,988.39
2019-02-16T08:45:40.761Z,988.40
2019-02-16T08:46:40.871Z,988.37
2019-02-16T08:47:40.802Z,988.27
2019-02-16T08:48:40.787Z,988.36
2019-02-16T08:49:40.813Z,988.34
2019-02-16T08:50:40.718Z,988.36
2019-02-16T08:51:40.753Z,988.33
2019-02-16T08:52:40.690Z,988.35
2019-02-16T08:53:49.299Z,988.36
2019-02-16T08:54:41.754Z,988.36
2019-02-16T08:55:40.671Z,988.33
2019-02-16T08:56:40.674Z,988.35
2019-02-16T08:57:40.814Z,988.36
2019-02-16T08:58:40.728Z,988.33
2019-02-16T08:59:40.645Z,988.28
2019-02-16T09:00:40.599Z,988.25
2019-02-16T09:01:40.590Z,988.33
2019-02-16T09:02:40.614Z,988.25
2019-02-16T09:03:40.573Z,988.21
2019-02-16T09:04:40.559Z,988.14
2019-02-16T09:05:40.599Z,988.18
2019-02-16T09:06:40.535Z,988.13
2019-02-16T09:07:40.535Z,988.19
2019-02-16T09:08:40.519Z,988.11
2019-02-16T09:09:40.510Z,988.14
2019-02-16T09:10:40.572Z,988.15
2019-02-16T09:11:40.486Z,988.12
2019-02-16T09:12:40.476Z,988.06
2019-02-16T09:13:40.477Z,988.04
2019-02-16T09:14:40.450Z,988.00
2019-02-16T09:15:40.771Z,988.00
2019-02-16T09:16:40.437Z,987.97
2019-02-16T09:17:40.568Z,987.97
2019-02-16T09:18:40.409Z,987.95
2019-02-16T09:19:40.412Z,987.99
2019-02-16T09:20:40.490Z,987.92
2019-02-16T09:21:40.464Z,987.89
2019-02-16T09:22:40.502Z,987.96
2019-02-16T09:23:40.613Z,987.92
2019-02-16T09:24:40.361Z,987.89
2019-02-16T09:25:40.332Z,987.92
2019-02-16T09:26:40.342Z,987.95
2019-02-16T09:27:40.344Z,987.92
2019-02-16T09:28:40.307Z,987.90
2019-02-16T09:29:40.287Z,987.87
2019-02-16T09:30:40.345Z,987.88
2019-02-16T09:31:40.304Z,987.87
2019-02-16T09:32:40.259Z,987.87
2019-02-16T09:33:40.247Z,987.91
2019-02-16T09:34:40.242Z,987.94
2019-02-16T09:35:40.889Z,987.88
2019-02-16T09:36:40.646Z,987.93
2019-02-16T09:37:40.207Z,987.95
2019-02-16T09:38:40.524Z,987.96
2019-02-16T09:39:40.185Z,987.89
2019-02-16T09:40:40.193Z,987.85
2019-02-16T09:41:40.159Z,987.88
2019-02-16T09:42:40.151Z,987.86
2019-02-16T09:43:40.244Z,987.90
2019-02-16T09:44:40.331Z,987.78
2019-02-16T09:45:40.375Z,987.84
2019-02-16T09:46:40.103Z,987.82
2019-02-16T09:47:40.140Z,987.83
2019-02-16T09:48:40.083Z,987.82
2019-02-16T09:49:40.197Z,987.84
2019-02-16T09:50:40.773Z,987.85
2019-02-16T09:51:40.164Z,987.80
2019-02-16T09:52:40.142Z,987.84
2019-02-16T09:53:40.160Z,987.87
2019-02-16T09:54:42.018Z,987.84
2019-02-16T09:55:40.406Z,987.86
2019-02-16T09:56:40.308Z,987.82
2019-02-16T09:57:40.021Z,987.80
2019-02-16T09:58:40.003Z,987.79
2019-02-16T09:59:40.017Z,987.82
2019-02-16T10:00:40.055Z,987.87
2019-02-16T10:01:40.023Z,987.81
2019-02-16T10:02:39.935Z,987.86
2019-02-16T10:03:40.411Z,987.86
2019-02-16T10:04:39.933Z,987.84
2019-02-16T10:05:39.983Z,987.85
2019-02-16T10:06:39.892Z,987.88
2019-02-16T10:07:39.878Z,987.86
2019-02-16T10:08:39.886Z,987.88
2019-02-16T10:09:39.872Z,987.87
2019-02-16T10:10:41.560Z,987.91
2019-02-16T10:11:39.845Z,987.93
2019-02-16T10:12:39.861Z,987.91
2019-02-16T10:13:39.858Z,987.94
2019-02-16T10:14:39.898Z,987.99
2019-02-16T10:15:39.848Z,987.99
2019-02-16T10:16:39.788Z,987.99
2019-02-16T10:17:39.785Z,987.93
2019-02-16T10:18:39.764Z,988.01
2019-02-16T10:19:39.770Z,987.92
2019-02-16T10:20:40.468Z,987.91
2019-02-16T10:21:39.731Z,987.89
2019-02-16T10:22:40.201Z,987.92
2019-02-16T10:23:39.718Z,987.85
2019-02-16T10:24:39.706Z,987.84
2019-02-16T10:25:39.689Z,987.90
2019-02-16T10:26:39.691Z,987.86
2019-02-16T10:27:39.717Z,987.86
2019-02-16T10:28:39.653Z,987.80
2019-02-16T10:29:39.830Z,987.88
2019-02-16T10:30:39.634Z,987.84
2019-02-16T10:31:39.623Z,987.88
2019-02-16T10:32:39.614Z,987.87
2019-02-16T10:33:39.601Z,987.84
2019-02-16T10:34:39.607Z,987.83
2019-02-16T10:35:39.599Z,987.81
2019-02-16T10:36:39.590Z,987.81
2019-02-16T10:37:39.561Z,987.79
2019-02-16T10:38:39.597Z,987.79
2019-02-16T10:39:39.567Z,987.75
2019-02-16T10:40:39.533Z,987.80
2019-02-16T10:41:39.521Z,987.71
2019-02-16T10:42:39.512Z,987.72
2019-02-16T10:43:39.510Z,987.68
2019-02-16T10:44:39.503Z,987.75
2019-02-16T10:45:39.541Z,987.72
2019-02-16T10:46:39.481Z,987.73
2019-02-16T10:47:39.481Z,987.71
2019-02-16T10:48:39.467Z,987.64
2019-02-16T10:49:39.597Z,987.72
2019-02-16T10:50:39.482Z,987.72
2019-02-16T10:51:39.414Z,987.70
2019-02-16T10:52:39.661Z,987.65
2019-02-16T10:53:39.401Z,987.72
2019-02-16T10:54:39.390Z,987.63
2019-02-16T10:55:39.383Z,987.64
2019-02-16T10:56:39.483Z,987.55
2019-02-16T10:57:39.352Z,987.64
2019-02-16T10:58:39.387Z,987.60
2019-02-16T10:59:39.338Z,987.56
2019-02-16T11:00:39.823Z,987.53
2019-02-16T11:01:39.306Z,987.57
2019-02-16T11:02:39.303Z,987.51
2019-02-16T11:03:39.289Z,987.50
2019-02-16T11:04:39.295Z,987.50
2019-02-16T11:05:39.277Z,987.52
2019-02-16T11:06:39.281Z,987.50
2019-02-16T11:07:39.243Z,987.47
2019-02-16T11:08:39.230Z,987.53
2019-02-16T11:09:39.259Z,987.39
2019-02-16T11:10:39.230Z,987.40
2019-02-16T11:11:39.213Z,987.47
2019-02-16T11:12:39.202Z,987.48
2019-02-16T11:13:39.303Z,987.42
2019-02-16T11:14:39.174Z,987.43
2019-02-16T11:15:39.599Z,987.43
2019-02-16T11:16:39.222Z,987.49
2019-02-16T11:17:39.173Z,987.49
2019-02-16T11:18:39.130Z,987.47
2019-02-16T11:19:39.118Z,987.50
2019-02-16T11:20:40.478Z,987.46
2019-02-16T11:21:39.130Z,987.47
2019-02-16T11:22:39.168Z,987.48
2019-02-16T11:23:39.129Z,987.43
2019-02-16T11:24:39.232Z,987.43
2019-02-16T11:25:39.059Z,987.40
2019-02-16T11:26:39.058Z,987.41
2019-02-16T11:27:40.422Z,987.40
2019-02-16T11:28:39.026Z,987.41
2019-02-16T11:29:39.022Z,987.40
2019-02-16T11:30:39.025Z,987.44
2019-02-16T11:31:39.006Z,987.43
2019-02-16T11:32:39.123Z,987.42
2019-02-16T11:33:38.993Z,987.40
2019-02-16T11:34:38.994Z,987.36
2019-02-16T11:35:40.345Z,987.37
2019-02-16T11:36:39.005Z,987.43
2019-02-16T11:37:38.961Z,987.41
2019-02-16T11:38:38.926Z,987.32
2019-02-16T11:39:38.917Z,987.36
2019-02-16T11:40:38.927Z,987.35
2019-02-16T11:41:38.973Z,987.42
2019-02-16T11:42:38.892Z,987.34
2019-02-16T11:43:40.958Z,987.37
2019-02-16T11:44:38.924Z,987.35
2019-02-16T11:45:38.859Z,987.35
2019-02-16T11:46:38.878Z,987.32
2019-02-16T11:47:38.837Z,987.24
2019-02-16T11:48:38.830Z,987.19
2019-02-16T11:49:38.848Z,987.20
2019-02-16T11:50:38.815Z,987.07
2019-02-16T11:51:38.827Z,987.14
2019-02-16T11:52:38.806Z,987.14
2019-02-16T11:53:38.847Z,987.14
2019-02-16T11:54:45.519Z,987.12
2019-02-16T11:55:39.809Z,987.19
2019-02-16T11:56:38.758Z,987.13
2019-02-16T11:57:38.749Z,987.13
2019-02-16T11:58:38.730Z,987.15
2019-02-16T11:59:38.740Z,987.14
2019-02-16T12:00:40.188Z,987.11
2019-02-16T12:01:40.714Z,987.10
2019-02-16T12:02:40.059Z,986.99
2019-02-16T12:03:38.685Z,987.01
2019-02-16T12:04:38.683Z,986.92
2019-02-16T12:05:38.648Z,986.95
2019-02-16T12:06:38.721Z,986.87
2019-02-16T12:07:38.641Z,986.95
2019-02-16T12:08:38.620Z,986.92
2019-02-16T12:09:38.613Z,986.95
2019-02-16T12:10:38.600Z,986.97
2019-02-16T12:11:38.588Z,986.94
2019-02-16T12:12:38.592Z,986.92
2019-02-16T12:13:38.564Z,986.96
2019-02-16T12:14:38.556Z,986.86
2019-02-16T12:15:38.573Z,986.85
2019-02-16T12:16:38.541Z,986.84
2019-02-16T12:17:38.631Z,986.81
2019-02-16T12:18:38.581Z,986.78
2019-02-16T12:19:38.507Z,986.82
2019-02-16T12:20:38.488Z,986.80
2019-02-16T12:21:38.497Z,986.86
2019-02-16T12:22:38.497Z,986.85
2019-02-16T12:23:39.149Z,986.78
2019-02-16T12:24:38.449Z,986.85
2019-02-16T12:25:38.507Z,986.83
2019-02-16T12:26:38.441Z,986.81
2019-02-16T12:27:40.450Z,986.83
2019-02-16T12:28:38.483Z,986.81